createdAt,value
2018-05-25T00:00:56.179Z,9.37
2018-05-25T00:03:24.800Z,7.63
2018-05-25T00:05:53.081Z,10.47
2018-05-25T00:08:21.372Z,11.57
2018-05-25T00:10:49.669Z,9.10
2018-05-25T00:13:17.966Z,9.30
2018-05-25T00:15:46.272Z,7.60
2018-05-25T00:18:14.562Z,8.37
2018-05-25T00:20:42.831Z,8.97
2018-05-25T00:23:11.129Z,9.97
2018-05-25T00:25:39.401Z,9.10
2018-05-25T00:28:07.678Z,8.83
2018-05-25T00:30:35.961Z,10.73
2018-05-25T00:33:04.245Z,10.57
2018-05-25T00:35:32.530Z,12.07
2018-05-25T00:38:00.818Z,11.97
2018-05-25T00:40:29.125Z,11.33
2018-05-25T00:42:57.412Z,10.80
2018-05-25T00:45:25.686Z,11.53
2018-05-25T00:47:53.981Z,10.87
2018-05-25T00:50:22.301Z,9.97
2018-05-25T00:52:50.552Z,9.63
2018-05-25T00:55:30.697Z,9.20
2018-05-25T00:57:58.989Z,10.07
2018-05-25T01:00:27.261Z,7.87
2018-05-25T01:02:55.575Z,10.57
2018-05-25T01:05:23.858Z,10.40
2018-05-25T01:07:52.142Z,9.10
2018-05-25T01:10:20.425Z,8.10
2018-05-25T01:12:48.702Z,10.23
2018-05-25T01:15:16.997Z,9.23
2018-05-25T01:17:45.269Z,9.47
2018-05-25T01:20:13.574Z,11.10
2018-05-25T01:22:41.855Z,12.37
2018-05-25T01:25:10.136Z,10.20
2018-05-25T01:27:38.435Z,12.00
2018-05-25T01:30:06.718Z,13.37
2018-05-25T01:32:35.010Z,13.67
2018-05-25T01:35:03.289Z,11.83
2018-05-25T01:37:31.578Z,12.57
2018-05-25T01:39:59.865Z,13.73
2018-05-25T01:42:28.162Z,12.70
2018-05-25T01:44:56.478Z,13.67
2018-05-25T01:47:24.757Z,11.83
2018-05-25T01:49:53.053Z,10.47
2018-05-25T01:52:21.330Z,12.03
2018-05-25T01:54:49.622Z,11.80
2018-05-25T01:57:17.906Z,12.30
2018-05-25T01:59:46.210Z,10.43
2018-05-25T02:02:14.478Z,9.77
2018-05-25T02:04:42.758Z,10.07
2018-05-25T02:07:11.041Z,11.70
2018-05-25T02:09:39.322Z,11.13
2018-05-25T02:12:07.609Z,12.57
2018-05-25T02:14:35.885Z,12.13
2018-05-25T02:17:04.187Z,12.47
2018-05-25T02:19:32.461Z,12.00
2018-05-25T02:22:00.745Z,13.03
2018-05-25T02:24:29.046Z,14.80
2018-05-25T02:26:57.501Z,13.83
2018-05-25T02:29:25.829Z,11.63
2018-05-25T02:31:54.070Z,12.83
2018-05-25T02:34:22.366Z,13.20
2018-05-25T02:36:50.646Z,12.03
2018-05-25T02:39:18.926Z,12.93
2018-05-25T02:41:47.219Z,11.93
2018-05-25T02:44:15.497Z,13.17
2018-05-25T02:46:43.795Z,13.13
2018-05-25T02:49:12.074Z,12.77
2018-05-25T02:51:40.365Z,10.83
2018-05-25T02:54:08.650Z,11.60
2018-05-25T02:56:36.925Z,15.47
2018-05-25T02:59:05.226Z,13.63
2018-05-25T03:01:33.527Z,15.97
2018-05-25T03:04:01.817Z,16.63
2018-05-25T03:06:30.094Z,15.83
2018-05-25T03:08:58.386Z,17.80
2018-05-25T03:11:26.670Z,18.37
2018-05-25T03:13:54.949Z,17.87
2018-05-25T03:16:23.249Z,18.60
2018-05-25T03:18:51.535Z,16.93
2018-05-25T03:21:19.826Z,19.90
2018-05-25T03:23:48.102Z,21.97
2018-05-25T03:26:16.404Z,18.20
2018-05-25T03:28:44.682Z,19.93
2018-05-25T03:31:12.959Z,18.57
2018-05-25T03:33:41.250Z,17.47
2018-05-25T03:36:09.530Z,21.60
2018-05-25T03:38:37.819Z,22.63
2018-05-25T03:41:06.098Z,23.13
2018-05-25T03:43:34.416Z,26.47
2018-05-25T03:46:02.685Z,25.03
2018-05-25T03:48:30.966Z,29.37
2018-05-25T03:50:59.260Z,28.77
2018-05-25T03:53:27.537Z,26.77
2018-05-25T03:55:55.826Z,26.83
2018-05-25T03:58:36.014Z,26.70
2018-05-25T04:01:16.145Z,26.93
2018-05-25T04:03:45.262Z,25.83
2018-05-25T04:06:13.554Z,26.83
2018-05-25T04:08:41.837Z,20.87
2018-05-25T04:11:10.117Z,28.70
2018-05-25T04:13:38.410Z,25.43
2018-05-25T04:16:06.692Z,30.47
2018-05-25T04:18:34.992Z,28.40
2018-05-25T04:21:03.257Z,27.80
2018-05-25T04:23:31.549Z,22.53
2018-05-25T04:25:59.837Z,27.53
2018-05-25T04:28:28.113Z,28.27
2018-05-25T04:30:56.401Z,26.23
2018-05-25T04:33:24.689Z,27.73
2018-05-25T04:35:52.978Z,26.10
2018-05-25T04:38:21.257Z,28.97
2018-05-25T04:40:49.553Z,29.43
2018-05-25T04:43:17.856Z,27.77
2018-05-25T04:45:46.113Z,28.77
2018-05-25T04:48:14.406Z,26.07
2018-05-25T04:50:42.681Z,24.70
2018-05-25T04:53:10.978Z,26.30
2018-05-25T04:55:39.253Z,27.03
2018-05-25T04:58:07.544Z,26.97
2018-05-25T05:00:35.833Z,28.27
2018-05-25T05:03:04.105Z,25.60
2018-05-25T05:05:32.464Z,26.03
2018-05-25T05:08:00.703Z,25.67
2018-05-25T05:10:28.983Z,23.13
2018-05-25T05:12:57.269Z,25.07
2018-05-25T05:15:25.554Z,25.73
2018-05-25T05:17:53.842Z,26.73
2018-05-25T05:20:22.118Z,28.50
2018-05-25T05:22:50.398Z,24.23
2018-05-25T05:25:18.685Z,26.50
2018-05-25T05:27:46.968Z,27.50
2018-05-25T05:30:15.261Z,27.87
2018-05-25T05:32:43.548Z,29.57
2018-05-25T05:35:11.834Z,29.03
2018-05-25T05:37:40.122Z,28.53
2018-05-25T05:40:08.403Z,28.13
2018-05-25T05:42:36.698Z,26.13
2018-05-25T05:45:04.978Z,25.67
2018-05-25T05:47:33.258Z,27.23
2018-05-25T05:50:01.546Z,28.03
2018-05-25T05:52:32.073Z,25.17
2018-05-25T05:55:00.439Z,26.33
2018-05-25T05:57:29.846Z,27.67
2018-05-25T05:59:58.126Z,29.00
2018-05-25T06:02:26.418Z,27.53
2018-05-25T06:04:54.693Z,28.43
2018-05-25T06:07:23.002Z,27.23
2018-05-25T06:09:51.290Z,27.70
2018-05-25T06:12:19.604Z,28.27
2018-05-25T06:14:47.869Z,27.23
2018-05-25T06:17:16.202Z,25.03
2018-05-25T06:19:44.507Z,23.67
2018-05-25T06:22:12.783Z,23.27
2018-05-25T06:24:41.063Z,25.67
2018-05-25T06:27:09.354Z,24.23
2018-05-25T06:29:37.629Z,24.47
2018-05-25T06:32:05.928Z,24.17
2018-05-25T06:34:34.202Z,22.30
2018-05-25T06:37:02.481Z,23.57
2018-05-25T06:39:30.775Z,25.33
2018-05-25T06:41:59.054Z,24.23
2018-05-25T06:44:27.408Z,22.73
2018-05-25T06:46:55.638Z,24.47
2018-05-25T06:49:23.922Z,24.50
2018-05-25T06:51:52.214Z,25.00
2018-05-25T06:54:20.493Z,23.83
2018-05-25T06:56:48.787Z,22.00
2018-05-25T06:59:17.066Z,20.90
2018-05-25T07:01:45.350Z,20.27
2018-05-25T07:04:13.642Z,24.23
2018-05-25T07:06:41.921Z,22.47
2018-05-25T07:09:10.226Z,22.23
2018-05-25T07:11:38.519Z,21.53
2018-05-25T07:14:06.790Z,22.57
2018-05-25T07:16:35.085Z,20.20
2018-05-25T07:19:03.424Z,21.10
2018-05-25T07:21:31.661Z,21.97
2018-05-25T07:23:59.938Z,21.07
2018-05-25T07:26:28.213Z,18.83
2018-05-25T07:28:56.504Z,20.63
2018-05-25T07:31:24.786Z,18.57
2018-05-25T07:33:53.921Z,21.23
2018-05-25T07:36:22.249Z,19.30
2018-05-25T07:38:50.538Z,21.40
2018-05-25T07:41:18.830Z,20.43
2018-05-25T07:43:47.121Z,19.30
2018-05-25T07:46:15.438Z,18.80
2018-05-25T07:48:43.722Z,20.60
2018-05-25T07:51:11.994Z,19.03
2018-05-25T07:53:40.291Z,17.93
2018-05-25T07:56:08.577Z,17.37
2018-05-25T07:58:38.231Z,15.93
2018-05-25T08:01:06.525Z,16.47
2018-05-25T08:03:34.813Z,16.90
2018-05-25T08:06:03.092Z,17.13
2018-05-25T08:08:31.402Z,15.00
2018-05-25T08:10:59.677Z,14.87
2018-05-25T08:13:27.961Z,15.47
2018-05-25T08:15:56.262Z,15.87
2018-05-25T08:18:24.562Z,15.93
2018-05-25T08:20:52.830Z,13.93
2018-05-25T08:23:21.114Z,12.80
2018-05-25T08:25:49.397Z,13.97
2018-05-25T08:28:17.685Z,13.50
2018-05-25T08:30:45.970Z,13.97
2018-05-25T08:33:14.249Z,15.23
2018-05-25T08:35:42.538Z,13.03
2018-05-25T08:38:10.821Z,13.23
2018-05-25T08:40:39.106Z,13.50
2018-05-25T08:43:07.390Z,14.13
2018-05-25T08:45:35.688Z,14.17
2018-05-25T08:48:03.974Z,14.87
2018-05-25T08:50:32.265Z,13.97
2018-05-25T08:53:00.562Z,14.40
2018-05-25T08:55:28.841Z,14.27
2018-05-25T08:57:57.202Z,13.47
2018-05-25T09:00:25.477Z,12.57
2018-05-25T09:02:53.767Z,13.40
2018-05-25T09:05:22.045Z,13.60
2018-05-25T09:07:50.350Z,12.33
2018-05-25T09:10:18.630Z,12.70
2018-05-25T09:12:46.917Z,11.27
2018-05-25T09:15:15.197Z,11.50
2018-05-25T09:17:43.491Z,12.20
2018-05-25T09:20:11.766Z,12.33
2018-05-25T09:22:40.075Z,12.70
2018-05-25T09:25:08.357Z,11.17
2018-05-25T09:27:36.642Z,11.33
2018-05-25T09:30:04.933Z,10.90
2018-05-25T09:32:33.206Z,10.90
2018-05-25T09:35:01.503Z,11.07
2018-05-25T09:37:29.790Z,12.20
2018-05-25T09:39:58.089Z,10.90
2018-05-25T09:42:26.368Z,11.17
2018-05-25T09:44:54.658Z,11.43
2018-05-25T09:47:22.933Z,12.37
2018-05-25T09:49:51.225Z,11.67
2018-05-25T09:52:19.509Z,11.57
2018-05-25T09:54:47.801Z,10.97
2018-05-25T09:57:16.086Z,11.73
2018-05-25T09:59:44.708Z,11.33
2018-05-25T10:02:12.988Z,11.40
2018-05-25T10:04:41.269Z,10.80
2018-05-25T10:07:09.553Z,9.80
2018-05-25T10:09:37.826Z,9.87
2018-05-25T10:12:06.109Z,9.97
2018-05-25T10:14:34.402Z,10.10
2018-05-25T10:17:02.709Z,11.33
2018-05-25T10:19:30.993Z,9.87
2018-05-25T10:21:59.630Z,11.10
2018-05-25T10:24:27.909Z,10.50
2018-05-25T10:26:56.190Z,9.43
2018-05-25T10:29:24.477Z,9.60
2018-05-25T10:31:52.754Z,10.00
2018-05-25T10:34:21.037Z,9.53
2018-05-25T10:36:49.322Z,10.60
2018-05-25T10:39:17.613Z,9.77
2018-05-25T10:41:45.925Z,9.87
2018-05-25T10:44:14.206Z,10.27
2018-05-25T10:46:42.509Z,10.30
2018-05-25T10:49:10.798Z,9.07
2018-05-25T10:51:39.078Z,11.10
2018-05-25T10:54:07.387Z,9.97
2018-05-25T10:56:35.657Z,9.43
2018-05-25T10:59:03.947Z,10.10
2018-05-25T11:01:32.247Z,10.07
2018-05-25T11:04:00.527Z,9.00
2018-05-25T11:06:28.818Z,9.67
2018-05-25T11:08:57.109Z,9.07
2018-05-25T11:11:25.378Z,9.00
2018-05-25T11:13:53.662Z,10.17
2018-05-25T11:16:21.977Z,9.40
2018-05-25T11:18:50.258Z,9.47
2018-05-25T11:21:18.538Z,8.87
2018-05-25T11:23:46.821Z,8.70
2018-05-25T11:26:15.111Z,8.70
2018-05-25T11:28:43.388Z,9.37
2018-05-25T11:31:11.678Z,9.47
2018-05-25T11:33:39.994Z,8.37
2018-05-25T11:36:08.329Z,9.00
2018-05-25T11:38:36.610Z,8.40
2018-05-25T11:41:04.881Z,8.70
2018-05-25T11:43:33.154Z,8.87
2018-05-25T11:46:01.442Z,8.33
2018-05-25T11:48:29.719Z,7.83
2018-05-25T11:50:58.309Z,8.17
2018-05-25T11:53:26.601Z,7.00
2018-05-25T11:55:54.865Z,7.60
2018-05-25T11:58:23.158Z,7.37
2018-05-25T12:00:51.438Z,8.47
2018-05-25T12:03:19.706Z,8.20
2018-05-25T12:05:47.973Z,7.83
2018-05-25T12:08:16.284Z,8.67
2018-05-25T12:10:44.545Z,8.27
2018-05-25T12:13:12.817Z,9.77
2018-05-25T12:15:41.107Z,7.60
2018-05-25T12:18:09.381Z,8.13
2018-05-25T12:20:37.657Z,7.73
2018-05-25T12:23:05.951Z,8.07
2018-05-25T12:25:34.229Z,7.93
2018-05-25T12:28:02.527Z,8.23
2018-05-25T12:30:30.804Z,8.37
2018-05-25T12:32:59.081Z,7.60
2018-05-25T12:35:27.349Z,8.57
2018-05-25T12:37:55.658Z,8.40
2018-05-25T12:40:23.932Z,7.60
2018-05-25T12:42:52.198Z,7.87
2018-05-25T12:45:20.522Z,8.57
2018-05-25T12:47:48.813Z,7.70
2018-05-25T12:50:17.085Z,7.73
2018-05-25T12:52:45.366Z,8.00
2018-05-25T12:55:13.642Z,8.23
2018-05-25T12:57:41.965Z,7.83
2018-05-25T13:00:10.233Z,8.60
2018-05-25T13:02:38.517Z,7.60
2018-05-25T13:05:06.797Z,7.83
2018-05-25T13:07:35.069Z,7.40
2018-05-25T13:10:03.334Z,7.07
2018-05-25T13:12:31.623Z,7.97
2018-05-25T13:14:59.894Z,7.47
2018-05-25T13:17:28.202Z,7.17
2018-05-25T13:19:56.497Z,7.50
2018-05-25T13:22:24.982Z,7.80
2018-05-25T13:24:53.249Z,7.77
2018-05-25T13:27:21.542Z,8.13
2018-05-25T13:29:49.837Z,7.63
2018-05-25T13:32:18.113Z,7.93
2018-05-25T13:34:46.405Z,7.77
2018-05-25T13:37:14.662Z,7.20
2018-05-25T13:39:42.947Z,7.40
2018-05-25T13:42:11.222Z,8.00
2018-05-25T13:44:39.498Z,7.10
2018-05-25T13:47:07.782Z,7.50
2018-05-25T13:49:36.057Z,8.87
2018-05-25T13:52:04.487Z,7.90
2018-05-25T13:54:32.738Z,7.97
2018-05-25T13:57:01.010Z,7.90
2018-05-25T13:59:29.375Z,7.27
2018-05-25T14:01:57.641Z,7.27
2018-05-25T14:04:26.032Z,7.63
2018-05-25T14:06:54.322Z,7.80
2018-05-25T14:09:22.594Z,7.37
2018-05-25T14:11:50.890Z,6.93
2018-05-25T14:14:19.174Z,7.27
2018-05-25T14:16:47.438Z,7.47
2018-05-25T14:19:15.726Z,6.73
2018-05-25T14:21:44.044Z,6.37
2018-05-25T14:24:12.278Z,6.77
2018-05-25T14:26:40.557Z,7.17
2018-05-25T14:29:09.057Z,6.53
2018-05-25T14:31:37.333Z,7.87
2018-05-25T14:34:05.614Z,6.70
2018-05-25T14:36:33.885Z,6.97
2018-05-25T14:39:02.150Z,6.90
2018-05-25T14:41:30.449Z,6.37
2018-05-25T14:43:58.717Z,6.73
2018-05-25T14:46:26.993Z,6.90
2018-05-25T14:48:55.294Z,6.40
2018-05-25T14:51:23.565Z,6.07
2018-05-25T14:53:51.836Z,6.40
2018-05-25T14:56:20.133Z,6.80
2018-05-25T14:58:48.408Z,6.87
2018-05-25T15:01:16.673Z,7.03
2018-05-25T15:03:44.965Z,6.67
2018-05-25T15:09:10.412Z,6.27
2018-05-25T15:11:38.673Z,6.53
2018-05-25T15:14:06.943Z,6.13
2018-05-25T15:16:35.229Z,6.00
2018-05-25T15:19:03.502Z,6.63
2018-05-25T15:21:31.773Z,5.80
2018-05-25T15:24:00.054Z,6.10
2018-05-25T15:26:28.321Z,6.10
2018-05-25T15:28:56.597Z,6.87
2018-05-25T15:31:24.888Z,5.87
2018-05-25T15:33:53.160Z,5.93
2018-05-25T15:36:21.421Z,6.00
2018-05-25T15:38:49.707Z,6.27
2018-05-25T15:41:17.980Z,5.63
2018-05-25T15:43:46.247Z,5.80
2018-05-25T15:48:50.635Z,5.67
2018-05-25T15:51:18.893Z,5.77
2018-05-25T15:53:47.161Z,5.97
2018-05-25T15:56:15.445Z,5.50
2018-05-25T15:58:43.711Z,5.57
2018-05-25T16:01:11.981Z,5.73
2018-05-25T16:03:40.312Z,5.00
2018-05-25T16:06:08.580Z,5.43
2018-05-25T16:08:36.850Z,5.50
2018-05-25T16:11:05.134Z,5.67
2018-05-25T16:13:34.378Z,5.37
2018-05-25T16:16:02.654Z,6.30
2018-05-25T16:18:30.930Z,5.90
2018-05-25T16:20:59.204Z,5.87
2018-05-25T16:23:27.472Z,6.00
2018-05-25T16:25:55.755Z,5.70
2018-05-25T16:28:25.018Z,5.33
2018-05-25T16:30:53.327Z,6.20
2018-05-25T16:33:21.575Z,6.10
2018-05-25T16:35:50.375Z,5.97
2018-05-25T16:38:18.657Z,6.57
2018-05-25T16:40:46.934Z,6.60
2018-05-25T16:43:15.210Z,6.13
2018-05-25T16:45:43.478Z,6.00
2018-05-25T16:48:11.753Z,6.40
2018-05-25T16:50:40.028Z,5.73
2018-05-25T16:53:08.309Z,5.67
2018-05-25T16:55:36.579Z,5.70
2018-05-25T16:58:04.857Z,5.50
2018-05-25T17:00:33.125Z,5.93
2018-05-25T17:03:01.402Z,5.70
2018-05-25T17:05:29.678Z,5.50
2018-05-25T17:07:58.225Z,5.10
2018-05-25T17:10:26.528Z,5.47
2018-05-25T17:12:54.848Z,6.40
2018-05-25T17:15:23.090Z,6.23
2018-05-25T17:17:51.370Z,6.27
2018-05-25T17:20:19.650Z,5.70
2018-05-25T17:22:47.923Z,5.70
2018-05-25T17:25:16.242Z,5.80
2018-05-25T17:27:44.513Z,4.83
2018-05-25T17:30:12.796Z,5.00
2018-05-25T17:32:41.062Z,5.50
2018-05-25T17:35:09.340Z,4.93
2018-05-25T17:37:38.298Z,5.00
2018-05-25T17:40:06.606Z,4.87
2018-05-25T17:42:34.878Z,5.00
2018-05-25T17:45:03.170Z,4.90
2018-05-25T17:47:31.437Z,5.07
2018-05-25T17:49:59.713Z,6.00
2018-05-25T17:52:27.979Z,5.00
2018-05-25T17:54:56.278Z,5.00
2018-05-25T17:57:24.542Z,5.23
2018-05-25T17:59:52.826Z,5.60
2018-05-25T18:02:21.869Z,5.80
2018-05-25T18:04:50.138Z,4.90
2018-05-25T18:07:18.442Z,4.90
2018-05-25T18:09:46.699Z,5.17
2018-05-25T18:12:15.027Z,5.70
2018-05-25T18:14:43.287Z,5.73
2018-05-25T18:17:11.558Z,5.10
2018-05-25T18:19:39.826Z,4.80
2018-05-25T18:22:08.127Z,5.30
2018-05-25T18:24:36.407Z,4.80
2018-05-25T18:27:04.776Z,5.07
2018-05-25T18:29:33.029Z,4.70
2018-05-25T18:32:01.301Z,5.03
2018-05-25T18:34:29.593Z,6.10
2018-05-25T18:36:57.867Z,5.73
2018-05-25T18:39:26.143Z,5.73
2018-05-25T18:41:54.412Z,5.67
2018-05-25T18:44:22.722Z,5.70
2018-05-25T18:46:50.998Z,5.60
2018-05-25T18:49:19.274Z,5.40
2018-05-25T18:51:47.561Z,4.80
2018-05-25T18:54:27.726Z,5.50
2018-05-25T18:56:56.002Z,5.27
2018-05-25T18:59:24.274Z,4.90
2018-05-25T19:01:52.566Z,5.00
2018-05-25T19:04:20.834Z,5.43
2018-05-25T19:06:49.153Z,5.27
2018-05-25T19:09:17.393Z,4.60
2018-05-25T19:11:45.698Z,4.70
2018-05-25T19:14:13.973Z,4.60
2018-05-25T19:16:42.341Z,4.33
2018-05-25T19:19:10.630Z,4.93
2018-05-25T19:21:38.940Z,4.90
2018-05-25T19:24:07.209Z,5.07
2018-05-25T19:26:35.499Z,4.70
2018-05-25T19:29:03.766Z,5.57
2018-05-25T19:31:32.036Z,5.20
2018-05-25T19:34:00.326Z,6.50
2018-05-25T19:36:28.598Z,5.57
2018-05-25T19:38:56.885Z,5.77
2018-05-25T19:41:25.174Z,5.20
2018-05-25T19:43:53.489Z,5.60
2018-05-25T19:46:21.819Z,5.67
2018-05-25T19:48:50.128Z,5.83
2018-05-25T19:51:18.377Z,6.20
2018-05-25T19:53:46.658Z,6.90
2018-05-25T19:56:14.931Z,6.63
2018-05-25T19:58:43.243Z,7.47
2018-05-25T20:01:11.494Z,5.83
2018-05-25T20:03:39.774Z,6.13
2018-05-25T20:06:08.073Z,6.83
2018-05-25T20:08:36.341Z,6.07
2018-05-25T20:11:04.622Z,6.80
2018-05-25T20:13:32.891Z,5.97
2018-05-25T20:16:01.176Z,5.97
2018-05-25T20:18:29.442Z,7.33
2018-05-25T20:20:57.725Z,6.73
2018-05-25T20:23:25.981Z,6.20
2018-05-25T20:25:54.265Z,7.23
2018-05-25T20:28:22.666Z,7.67
2018-05-25T20:30:51.010Z,6.83
2018-05-25T20:33:19.349Z,7.17
2018-05-25T20:35:47.890Z,6.80
2018-05-25T20:38:17.089Z,6.87
2018-05-25T20:40:45.907Z,6.50
2018-05-25T20:43:14.170Z,6.30
2018-05-25T20:45:42.582Z,7.57
2018-05-25T20:48:10.879Z,7.27
2018-05-25T20:50:39.147Z,7.37
2018-05-25T20:53:07.427Z,6.90
2018-05-25T20:55:35.755Z,6.40
2018-05-25T20:58:03.997Z,6.80
2018-05-25T21:00:32.261Z,6.30
2018-05-25T21:03:00.533Z,7.30
2018-05-25T21:05:28.818Z,7.70
2018-05-25T21:07:57.097Z,7.80
2018-05-25T21:10:25.365Z,8.00
2018-05-25T21:12:53.650Z,8.60
2018-05-25T21:15:21.941Z,6.80
2018-05-25T21:17:50.274Z,6.27
2018-05-25T21:20:18.526Z,8.13
2018-05-25T21:22:47.706Z,6.50
2018-05-25T21:25:16.000Z,6.23
2018-05-25T21:27:44.279Z,6.87
2018-05-25T21:30:12.559Z,6.50
2018-05-25T21:32:41.759Z,6.23
2018-05-25T21:35:10.046Z,7.03
2018-05-25T21:37:38.306Z,5.67
2018-05-25T21:40:06.583Z,6.30
2018-05-25T21:42:34.874Z,6.50
2018-05-25T21:45:03.130Z,8.13
2018-05-25T21:47:31.417Z,8.30
2018-05-25T21:49:59.696Z,8.60
2018-05-25T21:52:27.981Z,8.70
2018-05-25T21:54:56.249Z,8.30
2018-05-25T21:57:24.547Z,8.70
2018-05-25T21:59:52.814Z,8.30
2018-05-25T22:02:21.125Z,8.47
2018-05-25T22:04:49.398Z,8.30
2018-05-25T22:07:17.681Z,8.27
2018-05-25T22:09:45.947Z,7.00
2018-05-25T22:12:14.233Z,6.63
2018-05-25T22:14:42.499Z,7.00
2018-05-25T22:17:10.768Z,7.20
2018-05-25T22:19:39.043Z,6.90
2018-05-25T22:22:07.310Z,8.07
2018-05-25T22:24:35.600Z,7.47
2018-05-25T22:27:03.870Z,8.23
2018-05-25T22:29:32.146Z,8.97
2018-05-25T22:32:00.426Z,7.10
2018-05-25T22:34:28.701Z,7.10
2018-05-25T22:36:56.969Z,6.97
2018-05-25T22:39:25.269Z,8.20
2018-05-25T22:41:56.881Z,7.97
2018-05-25T22:44:36.885Z,8.77
2018-05-25T22:47:22.770Z,8.60
2018-05-25T22:50:08.772Z,9.93
2018-05-25T22:52:48.064Z,9.37
2018-05-25T22:55:16.065Z,7.60
2018-05-25T22:57:44.338Z,8.17
2018-05-25T23:00:12.618Z,8.30
2018-05-25T23:02:40.894Z,8.20
2018-05-25T23:05:09.170Z,7.33
2018-05-25T23:07:37.457Z,8.47
2018-05-25T23:10:05.730Z,7.07
2018-05-25T23:12:34.018Z,10.50
2018-05-25T23:15:02.326Z,8.83
2018-05-25T23:17:30.609Z,8.97
2018-05-25T23:19:58.882Z,9.07
2018-05-25T23:22:27.249Z,7.77
2018-05-25T23:24:55.484Z,7.80
2018-05-25T23:27:23.766Z,8.90
2018-05-25T23:29:52.047Z,7.77
2018-05-25T23:32:20.325Z,7.83
2018-05-25T23:34:48.632Z,8.37
2018-05-25T23:37:16.920Z,8.00
2018-05-25T23:39:45.208Z,8.43
2018-05-25T23:42:13.488Z,7.00
2018-05-25T23:44:41.782Z,9.27
2018-05-25T23:47:10.052Z,7.87
2018-05-25T23:49:38.334Z,7.60
2018-05-25T23:52:06.614Z,7.87
2018-05-25T23:54:34.893Z,7.37
2018-05-25T23:57:03.178Z,9.30
2018-05-25T23:59:31.450Z,7.43
